createdAt,value
2019-03-21T00:01:02.253Z,64.60
2019-03-21T00:03:32.847Z,65.73
2019-03-21T00:06:04.396Z,57.30
2019-03-21T00:08:35.243Z,61.40
2019-03-21T00:11:48.260Z,63.10
2019-03-21T00:14:45.591Z,61.17
2019-03-21T00:17:17.347Z,61.73
2019-03-21T00:19:47.963Z,58.57
2019-03-21T00:22:18.646Z,60.07
2019-03-21T00:24:49.219Z,60.40
2019-03-21T00:27:19.921Z,59.03
2019-03-21T00:29:50.505Z,58.40
2019-03-21T00:32:21.131Z,60.20
2019-03-21T00:34:51.799Z,58.87
2019-03-21T00:37:22.405Z,58.90
2019-03-21T00:39:53.081Z,60.30
2019-03-21T00:42:23.710Z,64.57
2019-03-21T00:44:54.343Z,63.67
2019-03-21T00:47:24.990Z,70.83
2019-03-21T00:49:55.685Z,69.20
2019-03-21T00:52:26.365Z,70.43
2019-03-21T00:54:57.238Z,64.70
2019-03-21T00:57:28.026Z,63.47
2019-03-21T01:00:00.398Z,64.97
2019-03-21T01:02:31.087Z,67.37
2019-03-21T01:05:01.754Z,67.47
2019-03-21T01:07:32.472Z,72.57
2019-03-21T01:10:03.215Z,72.97
2019-03-21T01:12:33.990Z,76.87
2019-03-21T01:15:04.640Z,66.17
2019-03-21T01:17:35.706Z,66.67
2019-03-21T01:20:07.864Z,71.07
2019-03-21T01:22:38.533Z,68.37
2019-03-21T01:25:11.509Z,64.27
2019-03-21T01:27:42.215Z,62.87
2019-03-21T01:30:14.264Z,70.73
2019-03-21T01:32:45.002Z,64.43
2019-03-21T01:35:16.282Z,58.77
2019-03-21T01:37:46.936Z,66.00
2019-03-21T01:40:20.210Z,62.87
2019-03-21T01:42:50.782Z,64.73
2019-03-21T01:45:22.724Z,67.63
2019-03-21T01:47:53.972Z,59.50
2019-03-21T01:50:24.902Z,63.53
2019-03-21T01:52:55.576Z,68.13
2019-03-21T01:55:26.252Z,63.17
2019-03-21T01:57:56.949Z,63.00
2019-03-21T02:00:30.388Z,59.83
2019-03-21T02:03:01.070Z,58.37
2019-03-21T02:05:32.002Z,60.27
2019-03-21T02:08:02.719Z,63.93
2019-03-21T02:10:33.354Z,55.33
2019-03-21T02:13:03.946Z,59.20
2019-03-21T02:15:34.664Z,54.80
2019-03-21T02:18:05.461Z,54.87
2019-03-21T02:20:36.132Z,55.17
2019-03-21T02:23:06.886Z,52.53
2019-03-21T02:25:37.574Z,55.90
2019-03-21T02:28:08.302Z,60.30
2019-03-21T02:30:38.882Z,51.40
2019-03-21T02:33:16.123Z,54.23
2019-03-21T02:35:46.747Z,55.17
2019-03-21T02:38:17.347Z,54.13
2019-03-21T02:40:47.966Z,56.57
2019-03-21T02:43:18.543Z,54.43
2019-03-21T02:45:49.377Z,57.40
2019-03-21T02:48:19.939Z,56.53
2019-03-21T02:50:50.621Z,60.43
2019-03-21T02:53:21.213Z,55.57
2019-03-21T02:55:51.902Z,58.50
2019-03-21T02:58:22.574Z,57.83
2019-03-21T03:00:53.160Z,52.03
2019-03-21T03:03:23.799Z,51.63
2019-03-21T03:05:54.460Z,52.63
2019-03-21T03:08:25.105Z,51.30
2019-03-21T03:10:55.930Z,56.87
2019-03-21T03:13:26.555Z,49.93
2019-03-21T03:15:57.134Z,56.30
2019-03-21T03:18:27.729Z,53.60
2019-03-21T03:20:58.325Z,53.40
2019-03-21T03:23:29.034Z,48.33
2019-03-21T03:25:59.652Z,53.03
2019-03-21T03:28:30.304Z,52.17
2019-03-21T03:31:02.394Z,57.13
2019-03-21T03:33:32.974Z,48.83
2019-03-21T03:36:03.675Z,49.50
2019-03-21T03:38:34.294Z,52.80
2019-03-21T03:41:05.906Z,51.87
2019-03-21T03:43:36.497Z,55.07
2019-03-21T03:46:07.109Z,52.33
2019-03-21T03:48:37.683Z,49.53
2019-03-21T03:51:08.273Z,50.23
2019-03-21T03:53:42.272Z,53.33
2019-03-21T03:56:11.146Z,45.37
2019-03-21T03:58:42.981Z,55.70
2019-03-21T04:01:13.794Z,48.00
2019-03-21T04:03:44.481Z,52.97
2019-03-21T04:06:15.169Z,47.83
2019-03-21T04:08:45.812Z,45.33
2019-03-21T04:11:16.390Z,45.67
2019-03-21T04:13:46.987Z,48.37
2019-03-21T04:16:17.593Z,51.07
2019-03-21T04:18:48.215Z,47.27
2019-03-21T04:21:18.833Z,49.77
2019-03-21T04:23:49.438Z,43.20
2019-03-21T04:26:26.335Z,50.97
2019-03-21T04:28:56.875Z,46.43
2019-03-21T04:31:27.453Z,49.00
2019-03-21T04:33:59.911Z,43.60
2019-03-21T04:36:30.500Z,43.43
2019-03-21T04:39:01.900Z,42.03
2019-03-21T04:41:32.462Z,43.50
2019-03-21T04:44:03.146Z,45.03
2019-03-21T04:46:33.720Z,42.97
2019-03-21T04:49:04.462Z,44.43
2019-03-21T04:51:35.106Z,38.57
2019-03-21T04:54:05.772Z,42.27
2019-03-21T04:56:36.329Z,38.70
2019-03-21T04:59:06.993Z,39.77
2019-03-21T05:01:37.543Z,42.90
2019-03-21T05:04:08.151Z,38.13
2019-03-21T05:06:38.744Z,39.67
2019-03-21T05:09:12.829Z,42.37
2019-03-21T05:11:43.412Z,39.43
2019-03-21T05:14:14.113Z,44.23
2019-03-21T05:16:44.709Z,41.27
2019-03-21T05:19:15.607Z,42.10
2019-03-21T05:21:46.807Z,43.57
2019-03-21T05:24:17.436Z,39.83
2019-03-21T05:26:48.041Z,39.80
2019-03-21T05:29:18.646Z,46.87
2019-03-21T05:31:49.259Z,44.33
2019-03-21T05:34:19.941Z,42.53
2019-03-21T05:36:50.651Z,43.07
2019-03-21T05:39:21.301Z,43.50
2019-03-21T05:41:51.873Z,45.50
2019-03-21T05:44:32.478Z,45.37
2019-03-21T05:47:03.074Z,49.30
2019-03-21T05:49:33.713Z,47.57
2019-03-21T05:52:04.303Z,45.83
2019-03-21T05:54:34.905Z,44.73
2019-03-21T05:57:05.491Z,45.73
2019-03-21T05:59:36.125Z,51.57
2019-03-21T06:02:06.734Z,51.43
2019-03-21T06:04:37.478Z,54.07
2019-03-21T06:07:38.439Z,46.83
2019-03-21T06:10:12.885Z,47.77
2019-03-21T06:12:46.609Z,48.10
2019-03-21T06:15:20.509Z,48.27
2019-03-21T06:18:19.982Z,53.47
2019-03-21T06:21:02.666Z,48.70
2019-03-21T06:23:58.147Z,43.97
2019-03-21T06:26:36.710Z,48.47
2019-03-21T06:29:07.353Z,43.83
2019-03-21T06:31:37.916Z,50.17
2019-03-21T06:34:08.511Z,46.53
2019-03-21T06:36:39.097Z,45.73
2019-03-21T06:39:10.176Z,42.67
2019-03-21T06:41:40.776Z,48.73
2019-03-21T06:44:11.374Z,46.57
2019-03-21T06:46:49.482Z,50.33
2019-03-21T06:49:14.304Z,45.30
2019-03-21T06:51:44.995Z,56.50
2019-03-21T06:54:15.622Z,51.40
2019-03-21T06:56:46.194Z,49.17
2019-03-21T06:59:16.820Z,57.80
2019-03-21T07:01:47.561Z,46.67
2019-03-21T07:04:18.245Z,51.47
2019-03-21T07:06:48.938Z,51.30
2019-03-21T07:09:19.619Z,53.27
2019-03-21T07:11:50.261Z,52.30
2019-03-21T07:14:20.976Z,51.07
2019-03-21T07:17:00.085Z,56.63
2019-03-21T07:19:23.853Z,55.03
2019-03-21T07:21:54.446Z,56.03
2019-03-21T07:24:25.128Z,51.93
2019-03-21T07:26:55.714Z,52.70
2019-03-21T07:29:26.320Z,58.20
2019-03-21T07:31:56.902Z,56.40
2019-03-21T07:34:27.526Z,54.50
2019-03-21T07:36:58.241Z,51.47
2019-03-21T07:39:28.933Z,47.87
2019-03-21T07:42:01.185Z,42.83
2019-03-21T07:44:31.758Z,41.03
2019-03-21T07:47:12.196Z,40.73
2019-03-21T07:49:34.766Z,42.17
2019-03-21T07:52:05.387Z,44.07
2019-03-21T07:54:35.986Z,40.73
2019-03-21T07:57:06.594Z,45.70
2019-03-21T07:59:37.196Z,43.20
2019-03-21T08:02:07.816Z,34.13
2019-03-21T08:04:38.423Z,37.40
2019-03-21T08:07:09.045Z,34.47
2019-03-21T08:09:39.750Z,36.17
2019-03-21T08:12:10.476Z,33.50
2019-03-21T08:14:41.116Z,34.07
2019-03-21T08:17:11.724Z,41.47
2019-03-21T08:19:42.288Z,35.83
2019-03-21T08:22:12.946Z,36.67
2019-03-21T08:24:43.557Z,40.33
2019-03-21T08:27:14.160Z,39.47
2019-03-21T08:29:44.746Z,38.03
2019-03-21T08:32:15.389Z,37.73
2019-03-21T08:34:46.036Z,37.03
2019-03-21T08:37:16.642Z,34.60
2019-03-21T08:39:47.223Z,33.67
2019-03-21T08:42:17.822Z,29.23
2019-03-21T08:44:48.489Z,33.23
2019-03-21T08:47:19.062Z,33.90
2019-03-21T08:49:49.725Z,35.70
2019-03-21T08:52:20.467Z,36.07
2019-03-21T08:54:51.044Z,30.43
2019-03-21T08:57:21.762Z,33.67
2019-03-21T08:59:52.467Z,31.00
2019-03-21T09:02:23.091Z,28.53
2019-03-21T09:04:53.696Z,27.97
2019-03-21T09:07:24.362Z,34.50
2019-03-21T09:09:55.000Z,30.30
2019-03-21T09:12:25.676Z,33.27
2019-03-21T09:14:56.247Z,36.57
2019-03-21T09:17:26.827Z,33.67
2019-03-21T09:19:58.347Z,32.80
2019-03-21T09:22:28.983Z,29.33
2019-03-21T09:24:59.573Z,33.77
2019-03-21T09:27:30.275Z,34.53
2019-03-21T09:30:00.907Z,35.50
2019-03-21T09:32:31.557Z,32.47
2019-03-21T09:35:02.152Z,34.30
2019-03-21T09:37:32.751Z,32.50
2019-03-21T09:40:03.309Z,29.80
2019-03-21T09:42:33.904Z,32.17
2019-03-21T09:45:05.147Z,32.70
2019-03-21T09:47:35.847Z,25.83
2019-03-21T09:50:07.297Z,25.10
2019-03-21T09:52:38.661Z,21.50
2019-03-21T09:55:10.958Z,19.77
2019-03-21T09:57:43.253Z,22.47
2019-03-21T10:00:18.638Z,19.17
2019-03-21T10:02:50.965Z,22.73
2019-03-21T10:05:39.529Z,21.87
2019-03-21T10:08:11.859Z,21.77
2019-03-21T10:10:44.165Z,20.57
2019-03-21T10:13:32.583Z,18.73
2019-03-21T10:16:21.517Z,20.67
2019-03-21T10:19:10.257Z,20.20
2019-03-21T10:21:58.875Z,20.90
2019-03-21T10:24:46.135Z,19.43
2019-03-21T10:27:15.965Z,20.80
2019-03-21T10:29:46.645Z,24.17
2019-03-21T10:32:17.261Z,22.93
2019-03-21T10:34:47.963Z,20.77
2019-03-21T10:37:18.591Z,25.33
2019-03-21T10:39:49.199Z,18.63
2019-03-21T10:42:19.841Z,21.17
2019-03-21T10:44:50.447Z,20.40
2019-03-21T10:47:21.503Z,23.30
2019-03-21T10:49:52.116Z,21.57
2019-03-21T10:52:22.703Z,20.20
2019-03-21T10:54:53.306Z,19.23
2019-03-21T10:57:23.932Z,16.53
2019-03-21T10:59:54.560Z,20.27
2019-03-21T11:02:25.117Z,22.13
2019-03-21T11:04:55.773Z,24.17
2019-03-21T11:07:24.213Z,20.03
2019-03-21T11:09:54.871Z,23.67
2019-03-21T11:12:25.462Z,20.97
2019-03-21T11:14:56.092Z,22.60
2019-03-21T11:17:26.688Z,19.50
2019-03-21T11:19:57.303Z,19.90
2019-03-21T11:22:27.863Z,21.23
2019-03-21T11:24:58.457Z,21.20
2019-03-21T11:27:29.073Z,19.90
2019-03-21T11:29:59.701Z,19.20
2019-03-21T11:32:30.273Z,21.70
2019-03-21T11:35:00.929Z,22.90
2019-03-21T11:37:31.479Z,23.13
2019-03-21T11:40:02.096Z,21.63
2019-03-21T11:42:32.685Z,24.10
2019-03-21T11:45:03.331Z,22.23
2019-03-21T11:47:41.796Z,22.23
2019-03-21T11:50:06.564Z,23.07
2019-03-21T11:52:37.138Z,30.67
2019-03-21T11:55:08.062Z,25.10
2019-03-21T11:57:38.614Z,24.10
2019-03-21T12:00:09.840Z,23.00
2019-03-21T12:02:40.410Z,24.83
2019-03-21T12:05:11.164Z,26.67
2019-03-21T12:07:41.728Z,22.23
2019-03-21T12:10:12.542Z,25.43
2019-03-21T12:12:43.295Z,25.40
2019-03-21T12:15:14.012Z,26.67
2019-03-21T12:17:44.614Z,25.03
2019-03-21T12:20:17.839Z,26.93
2019-03-21T12:22:48.385Z,24.90
2019-03-21T12:25:19.006Z,31.47
2019-03-21T12:27:49.577Z,28.03
2019-03-21T12:30:29.084Z,23.97
2019-03-21T12:32:58.932Z,25.50
2019-03-21T12:35:29.552Z,26.30
2019-03-21T12:38:00.144Z,24.57
2019-03-21T12:40:30.835Z,26.23
2019-03-21T12:43:01.400Z,25.27
2019-03-21T12:45:32.014Z,26.50
2019-03-21T12:48:02.604Z,24.07
2019-03-21T12:50:33.319Z,22.53
2019-03-21T12:53:03.985Z,29.77
2019-03-21T12:55:34.614Z,24.13
2019-03-21T12:58:05.211Z,28.20
2019-03-21T13:00:40.428Z,26.77
2019-03-21T13:03:10.972Z,23.97
2019-03-21T13:05:41.612Z,28.13
2019-03-21T13:08:12.182Z,29.70
2019-03-21T13:10:43.191Z,26.13
2019-03-21T13:13:13.842Z,25.90
2019-03-21T13:15:44.434Z,30.50
2019-03-21T13:18:15.044Z,27.27
2019-03-21T13:20:46.106Z,26.93
2019-03-21T13:23:16.802Z,25.33
2019-03-21T13:25:47.528Z,27.67
2019-03-21T13:28:18.123Z,28.57
2019-03-21T13:30:48.700Z,26.50
2019-03-21T13:33:19.332Z,24.17
2019-03-21T13:35:50.172Z,27.23
2019-03-21T13:38:20.830Z,26.17
2019-03-21T13:40:51.528Z,30.70
2019-03-21T13:43:22.823Z,27.03
2019-03-21T13:45:53.481Z,26.10
2019-03-21T13:48:24.100Z,26.70
2019-03-21T13:50:54.700Z,29.07
2019-03-21T13:53:25.337Z,24.47
2019-03-21T13:55:55.925Z,28.57
2019-03-21T13:58:27.027Z,27.57
2019-03-21T14:00:57.639Z,30.03
2019-03-21T14:03:28.324Z,28.40
2019-03-21T14:05:59.067Z,25.83
2019-03-21T14:08:29.777Z,30.10
2019-03-21T14:11:00.381Z,33.47
2019-03-21T14:13:31.000Z,29.47
2019-03-21T14:16:01.567Z,29.60
2019-03-21T14:18:32.241Z,29.90
2019-03-21T14:21:02.820Z,30.03
2019-03-21T14:23:42.740Z,34.13
2019-03-21T14:26:05.892Z,31.03
2019-03-21T14:28:36.489Z,31.47
2019-03-21T14:31:07.409Z,29.87
2019-03-21T14:33:38.137Z,30.03
2019-03-21T14:36:08.737Z,31.43
2019-03-21T14:38:39.343Z,30.87
2019-03-21T14:41:10.020Z,33.43
2019-03-21T14:43:42.342Z,32.27
2019-03-21T14:46:13.046Z,30.17
2019-03-21T14:48:44.033Z,37.67
2019-03-21T14:51:14.863Z,30.57
2019-03-21T14:53:45.566Z,34.50
2019-03-21T14:56:16.211Z,30.83
2019-03-21T14:58:46.915Z,35.47
2019-03-21T15:01:17.609Z,35.47
2019-03-21T15:03:48.436Z,31.23
2019-03-21T15:06:19.001Z,35.33
2019-03-21T15:08:49.615Z,35.40
2019-03-21T15:11:20.160Z,34.90
2019-03-21T15:13:50.760Z,32.50
2019-03-21T15:16:21.451Z,29.90
2019-03-21T15:18:55.117Z,34.03
2019-03-21T15:21:25.687Z,34.23
2019-03-21T15:23:59.733Z,27.20
2019-03-21T15:26:28.723Z,29.47
2019-03-21T15:29:17.392Z,33.97
2019-03-21T15:32:05.830Z,35.57
2019-03-21T15:34:37.547Z,35.93
2019-03-21T15:37:08.141Z,35.13
2019-03-21T15:39:39.145Z,34.30
2019-03-21T15:42:09.801Z,33.27
2019-03-21T15:44:39.619Z,34.97
2019-03-21T15:47:10.269Z,35.57
2019-03-21T15:49:40.902Z,37.97
2019-03-21T15:52:11.500Z,38.10
2019-03-21T15:54:42.099Z,36.70
2019-03-21T15:57:12.685Z,35.23
2019-03-21T15:59:43.340Z,34.13
2019-03-21T16:02:13.935Z,32.77
2019-03-21T16:04:44.581Z,35.67
2019-03-21T16:07:15.169Z,33.80
2019-03-21T16:09:45.749Z,35.20
2019-03-21T16:12:16.439Z,39.20
2019-03-21T16:14:49.199Z,37.03
2019-03-21T16:17:19.369Z,37.37
2019-03-21T16:19:49.984Z,35.83
2019-03-21T16:22:20.585Z,31.97
2019-03-21T16:24:51.213Z,37.90
2019-03-21T16:27:21.837Z,36.33
2019-03-21T16:29:52.391Z,35.43
2019-03-21T16:32:22.983Z,33.17
2019-03-21T16:34:53.591Z,35.30
2019-03-21T16:37:24.268Z,41.33
2019-03-21T16:39:54.833Z,31.70
2019-03-21T16:42:25.448Z,32.37
2019-03-21T16:44:56.023Z,34.23
2019-03-21T16:47:26.639Z,33.30
2019-03-21T16:49:57.311Z,34.87
2019-03-21T16:52:28.000Z,35.13
2019-03-21T16:54:58.568Z,34.67
2019-03-21T16:57:29.214Z,33.53
2019-03-21T16:59:59.867Z,30.70
2019-03-21T17:02:30.550Z,32.93
2019-03-21T17:05:01.169Z,35.23
2019-03-21T17:07:31.811Z,33.83
2019-03-21T17:10:02.403Z,38.47
2019-03-21T17:12:33.032Z,35.47
2019-03-21T17:15:03.604Z,32.90
2019-03-21T17:17:34.291Z,31.83
2019-03-21T17:20:05.478Z,31.83
2019-03-21T17:22:36.071Z,31.23
2019-03-21T17:25:07.353Z,40.40
2019-03-21T17:27:38.543Z,31.27
2019-03-21T17:30:09.276Z,34.90
2019-03-21T17:32:39.864Z,35.43
2019-03-21T17:35:10.581Z,30.43
2019-03-21T17:37:41.203Z,36.23
2019-03-21T17:40:11.945Z,35.60
2019-03-21T17:42:42.618Z,35.92
2019-03-21T17:45:14.695Z,34.00
2019-03-21T17:47:45.316Z,35.30
2019-03-21T17:50:16.722Z,32.80
2019-03-21T17:52:47.339Z,30.87
2019-03-21T17:55:17.954Z,36.40
2019-03-21T17:57:48.628Z,34.37
2019-03-21T18:00:21.211Z,35.97
2019-03-21T18:02:51.938Z,38.10
2019-03-21T18:05:22.547Z,36.57
2019-03-21T18:07:53.226Z,36.10
2019-03-21T18:10:28.748Z,40.33
2019-03-21T18:12:59.385Z,38.10
2019-03-21T18:15:30.235Z,37.13
2019-03-21T18:18:02.731Z,37.40
2019-03-21T18:20:33.319Z,38.83
2019-03-21T18:23:03.963Z,41.13
2019-03-21T18:25:34.550Z,41.47
2019-03-21T18:28:05.145Z,36.07
2019-03-21T18:30:35.734Z,37.87
2019-03-21T18:33:06.429Z,40.33
2019-03-21T18:35:37.037Z,39.83
2019-03-21T18:38:07.657Z,39.93
2019-03-21T18:40:38.246Z,40.40
2019-03-21T18:43:08.849Z,40.83
2019-03-21T18:45:39.440Z,39.47
2019-03-21T18:48:10.050Z,40.33
2019-03-21T18:50:40.635Z,41.37
2019-03-21T18:53:11.322Z,39.70
2019-03-21T18:55:41.898Z,39.60
2019-03-21T18:58:12.531Z,40.47
2019-03-21T19:00:43.401Z,40.00
2019-03-21T19:03:13.996Z,43.57
2019-03-21T19:05:44.650Z,43.90
2019-03-21T19:08:15.238Z,39.50
2019-03-21T19:10:45.829Z,41.10
2019-03-21T19:13:16.460Z,42.50
2019-03-21T19:15:47.080Z,37.70
2019-03-21T19:18:17.633Z,38.03
2019-03-21T19:20:48.277Z,40.47
2019-03-21T19:23:18.870Z,37.70
2019-03-21T19:25:49.434Z,36.07
2019-03-21T19:28:20.013Z,36.60
2019-03-21T19:30:50.600Z,33.77
2019-03-21T19:33:21.192Z,34.60
2019-03-21T19:35:51.799Z,33.83
2019-03-21T19:38:23.863Z,34.90
2019-03-21T19:40:54.653Z,37.10
2019-03-21T19:43:25.428Z,35.40
2019-03-21T19:45:56.130Z,33.13
2019-03-21T19:48:26.713Z,35.60
2019-03-21T19:50:57.329Z,34.07
2019-03-21T19:53:29.019Z,30.60
2019-03-21T19:56:08.341Z,34.47
2019-03-21T19:58:32.043Z,31.30
2019-03-21T20:01:02.881Z,33.47
2019-03-21T20:03:33.449Z,33.20
2019-03-21T20:06:04.110Z,34.07
2019-03-21T20:08:34.689Z,36.20
2019-03-21T20:11:05.295Z,33.37
2019-03-21T20:13:35.878Z,32.93
2019-03-21T20:16:06.525Z,34.00
2019-03-21T20:18:37.121Z,34.27
2019-03-21T20:21:07.730Z,30.70
2019-03-21T20:23:38.311Z,35.53
2019-03-21T20:26:08.943Z,29.67
2019-03-21T20:28:39.547Z,37.67
2019-03-21T20:31:10.211Z,32.63
2019-03-21T20:33:40.803Z,32.83
2019-03-21T20:36:11.397Z,32.10
2019-03-21T20:38:42.009Z,34.07
2019-03-21T20:41:12.658Z,35.57
2019-03-21T20:43:43.233Z,35.80
2019-03-21T20:46:13.871Z,32.07
2019-03-21T20:48:42.307Z,29.63
2019-03-21T20:51:13.276Z,32.90
2019-03-21T20:53:43.919Z,30.10
2019-03-21T20:56:14.560Z,33.80
2019-03-21T20:58:45.187Z,33.63
2019-03-21T21:01:15.813Z,35.57
2019-03-21T21:03:46.429Z,31.70
2019-03-21T21:06:17.093Z,38.80
2019-03-21T21:08:47.801Z,40.50
2019-03-21T21:11:18.420Z,37.87
2019-03-21T21:13:49.058Z,35.43
2019-03-21T21:16:19.749Z,34.57
2019-03-21T21:18:50.314Z,32.23
2019-03-21T21:21:20.936Z,33.13
2019-03-21T21:23:51.611Z,31.47
2019-03-21T21:26:22.257Z,31.93
2019-03-21T21:28:52.857Z,33.80
2019-03-21T21:31:23.458Z,34.00
2019-03-21T21:33:54.099Z,34.57
2019-03-21T21:36:24.739Z,34.47
2019-03-21T21:38:55.412Z,31.50
2019-03-21T21:41:26.059Z,38.43
2019-03-21T21:43:56.741Z,34.07
2019-03-21T21:46:27.307Z,35.57
2019-03-21T21:48:57.940Z,36.67
2019-03-21T21:51:28.539Z,35.67
2019-03-21T21:53:59.158Z,34.53
2019-03-21T21:56:29.711Z,34.60
2019-03-21T21:59:00.293Z,32.10
2019-03-21T22:01:30.955Z,34.00
2019-03-21T22:04:04.859Z,35.90
2019-03-21T22:06:34.995Z,36.27
2019-03-21T22:09:08.019Z,36.33
2019-03-21T22:11:38.601Z,46.17
2019-03-21T22:14:09.251Z,38.23
2019-03-21T22:16:39.860Z,37.87
2019-03-21T22:19:10.517Z,37.77
2019-03-21T22:21:41.117Z,37.60
2019-03-21T22:24:11.750Z,37.53
2019-03-21T22:26:42.413Z,36.57
2019-03-21T22:29:13.035Z,38.40
2019-03-21T22:31:43.638Z,36.90
2019-03-21T22:34:14.347Z,35.43
2019-03-21T22:36:49.552Z,44.43
2019-03-21T22:39:17.285Z,40.27
2019-03-21T22:41:47.910Z,37.70
2019-03-21T22:44:18.546Z,36.63
2019-03-21T22:46:49.110Z,42.80
2019-03-21T22:49:19.783Z,33.87
2019-03-21T22:51:50.390Z,36.67
2019-03-21T22:54:21.096Z,34.13
2019-03-21T22:56:51.704Z,34.20
2019-03-21T22:59:22.415Z,37.43
2019-03-21T23:01:56.111Z,38.03
2019-03-21T23:04:26.773Z,36.67
2019-03-21T23:06:57.386Z,39.13
2019-03-21T23:09:28.009Z,36.87
2019-03-21T23:11:58.641Z,38.77
2019-03-21T23:14:29.367Z,37.80
2019-03-21T23:16:59.939Z,38.10
2019-03-21T23:19:30.575Z,38.00
2019-03-21T23:22:01.209Z,35.13
2019-03-21T23:24:31.806Z,35.63
2019-03-21T23:27:02.438Z,34.90
2019-03-21T23:29:33.048Z,36.37
2019-03-21T23:32:03.622Z,35.27
2019-03-21T23:34:34.303Z,40.37
2019-03-21T23:37:04.966Z,38.10
2019-03-21T23:39:35.712Z,37.67
2019-03-21T23:42:06.383Z,42.60
2019-03-21T23:44:37.047Z,36.70
2019-03-21T23:47:07.734Z,38.37
2019-03-21T23:49:38.378Z,38.10
2019-03-21T23:52:08.984Z,40.03
2019-03-21T23:54:39.587Z,42.83
2019-03-21T23:57:10.186Z,40.10
2019-03-21T23:59:40.826Z,40.50
